TimeCST,TemperatureF,Dew PointF,Humidity,Sea Level PressureIn,VisibilityMPH,Wind Direction,Wind SpeedMPH,Gust SpeedMPH,PrecipitationIn,Events,Conditions,WindDirDegrees,DateUTC
12:15 AM,35.6,34.2,94,30.12,10.0,Calm,Calm,-,N/A,,Mostly Cloudy,0,2013-11-03 05:15:00
12:35 AM,37.2,36.5,97,30.13,10.0,Calm,Calm,-,N/A,,Light Drizzle,0,2013-11-03 05:35:00
12:55 AM,37.9,37.4,98,30.14,7.0,Calm,Calm,-,N/A,Rain,Light Rain,0,2013-11-03 05:55:00
1:15 AM,39.2,38.5,97,30.14,7.0,West,3.5,-,0.01,Rain,Light Rain,270,2013-11-03 06:15:00
1:35 AM,39.2,38.5,97,30.15,10.0,West,3.5,-,0.01,Rain,Light Rain,270,2013-11-03 06:35:00
1:55 AM,39.7,38.8,97,30.15,10.0,Calm,Calm,-,0.01,Rain,Light Rain,0,2013-11-03 06:55:00
1:15 AM,39.7,37.9,93,30.15,10.0,Calm,Calm,-,N/A,Rain,Rain,0,2013-11-03 07:15:00
1:35 AM,39.7,38.3,95,30.16,10.0,Calm,Calm,-,N/A,,Light Drizzle,0,2013-11-03 07:35:00
1:55 AM,40.1,38.5,94,30.17,10.0,NW,3.5,-,N/A,Rain,Light Rain,320,2013-11-03 07:55:00
2:15 AM,40.1,37.6,91,30.17,10.0,West,3.5,-,N/A,,Overcast,260,2013-11-03 08:15:00
2:35 AM,39.6,38.1,95,30.17,10.0,WSW,3.5,-,N/A,,Overcast,250,2013-11-03 08:35:00
2:55 AM,39.2,37.9,95,30.18,10.0,Calm,Calm,-,N/A,,Overcast,0,2013-11-03 08:55:00
3:15 AM,39.2,37.9,95,30.20,10.0,NW,4.6,-,N/A,,Overcast,320,2013-11-03 09:15:00
3:35 AM,38.8,37.8,96,30.20,10.0,NW,4.6,-,N/A,,Overcast,320,2013-11-03 09:35:00
3:55 AM,38.7,37.8,97,30.21,10.0,NW,4.6,-,N/A,,Overcast,320,2013-11-03 09:55:00
4:15 AM,38.3,37.6,97,30.21,10.0,Calm,Calm,-,N/A,,Overcast,0,2013-11-03 10:15:00
4:35 AM,38.3,37.4,97,30.22,10.0,Calm,Calm,-,N/A,,Overcast,0,2013-11-03 10:35:00
4:55 AM,38.7,38.1,98,30.23,10.0,Calm,Calm,-,N/A,,Overcast,0,2013-11-03 10:55:00
5:15 AM,38.8,37.9,97,30.23,10.0,NE,3.5,-,N/A,,Overcast,40,2013-11-03 11:15:00
5:35 AM,39.2,38.3,97,30.24,10.0,East,4.6,-,N/A,,Overcast,90,2013-11-03 11:35:00
5:55 AM,38.7,37.9,97,30.24,10.0,East,3.5,-,N/A,,Overcast,100,2013-11-03 11:55:00
6:15 AM,37.4,36.7,97,30.25,10.0,East,3.5,-,N/A,,Scattered Clouds,80,2013-11-03 12:15:00
6:35 AM,36.7,36.3,99,30.26,7.0,Calm,Calm,-,N/A,,Scattered Clouds,0,2013-11-03 12:35:00
6:55 AM,36.9,36.7,99,30.27,7.0,Calm,Calm,-,N/A,,Scattered Clouds,0,2013-11-03 12:55:00
7:15 AM,37.6,37.6,100,30.28,7.0,Calm,Calm,-,N/A,,Clear,0,2013-11-03 13:15:00
7:35 AM,39.6,39.6,100,30.29,7.0,East,3.5,-,N/A,,Clear,100,2013-11-03 13:35:00
7:55 AM,40.8,40.8,100,30.31,10.0,ESE,6.9,-,N/A,,Scattered Clouds,110,2013-11-03 13:55:00
8:15 AM,41.5,39.2,91,30.31,10.0,ESE,9.2,-,N/A,,Clear,110,2013-11-03 14:15:00
8:35 AM,42.3,38.7,87,30.31,10.0,ESE,8.1,-,N/A,,Scattered Clouds,120,2013-11-03 14:35:00
8:55 AM,42.6,38.3,85,30.32,10.0,ESE,6.9,-,N/A,,Scattered Clouds,120,2013-11-03 14:55:00
9:15 AM,42.6,38.3,85,30.32,10.0,SE,4.6,-,N/A,,Scattered Clouds,130,2013-11-03 15:15:00
9:35 AM,44.1,39.2,83,30.32,10.0,SSE,8.1,-,N/A,,Scattered Clouds,150,2013-11-03 15:35:00
9:55 AM,45.3,38.8,78,30.32,10.0,ESE,5.8,-,N/A,,Scattered Clouds,120,2013-11-03 15:55:00
10:15 AM,44.8,36.9,74,30.33,10.0,SE,6.9,-,N/A,,Scattered Clouds,130,2013-11-03 16:15:00
10:35 AM,45.5,37.0,72,30.33,10.0,SE,5.8,-,N/A,,Scattered Clouds,140,2013-11-03 16:35:00
10:55 AM,45.1,37.4,74,30.32,10.0,ESE,9.2,-,N/A,,Scattered Clouds,120,2013-11-03 16:55:00
11:15 AM,46.6,38.1,72,30.31,10.0,SSE,8.1,-,N/A,,Mostly Cloudy,150,2013-11-03 17:15:00
11:35 AM,47.7,37.4,68,30.31,10.0,South,6.9,-,N/A,,Scattered Clouds,180,2013-11-03 17:35:00
11:55 AM,47.8,37.9,69,30.30,10.0,SE,6.9,-,N/A,,Scattered Clouds,140,2013-11-03 17:55:00
12:15 PM,47.3,36.9,67,30.30,10.0,SE,5.8,-,N/A,,Scattered Clouds,140,2013-11-03 18:15:00
12:35 PM,48.4,37.6,66,30.30,10.0,ESE,6.9,-,N/A,,Mostly Cloudy,120,2013-11-03 18:35:00
12:55 PM,48.4,36.3,63,30.29,10.0,SSE,3.5,-,N/A,,Scattered Clouds,160,2013-11-03 18:55:00
1:15 PM,47.8,34.7,60,30.29,10.0,ESE,5.8,-,N/A,,Clear,120,2013-11-03 19:15:00
1:35 PM,49.3,35.6,59,30.29,10.0,SSE,5.8,-,N/A,,Scattered Clouds,150,2013-11-03 19:35:00
1:55 PM,49.1,36.0,61,30.29,10.0,SE,5.8,-,N/A,,Scattered Clouds,130,2013-11-03 19:55:00
2:15 PM,48.7,36.0,61,30.29,10.0,ESE,5.8,-,N/A,,Mostly Cloudy,120,2013-11-03 20:15:00
2:35 PM,48.7,35.8,61,30.29,10.0,SSE,5.8,-,N/A,,Mostly Cloudy,150,2013-11-03 20:35:00
2:55 PM,48.4,34.3,58,30.29,10.0,ESE,6.9,-,N/A,,Overcast,120,2013-11-03 20:55:00
3:15 PM,47.5,35.2,63,30.28,10.0,SE,8.1,-,N/A,,Mostly Cloudy,140,2013-11-03 21:15:00
3:35 PM,47.5,35.4,63,30.28,10.0,ESE,5.8,-,N/A,,Mostly Cloudy,120,2013-11-03 21:35:00
3:55 PM,47.3,36.0,65,30.29,10.0,SE,5.8,-,N/A,,Overcast,130,2013-11-03 21:55:00
4:15 PM,46.8,36.1,67,30.29,10.0,SE,4.6,-,N/A,,Overcast,130,2013-11-03 22:15:00
4:35 PM,45.0,36.0,71,30.28,10.0,ESE,5.8,-,N/A,,Scattered Clouds,120,2013-11-03 22:35:00
4:55 PM,43.3,35.8,75,30.29,10.0,ESE,4.6,-,N/A,,Scattered Clouds,120,2013-11-03 22:55:00
5:15 PM,41.5,36.5,82,30.29,10.0,ESE,4.6,-,N/A,,Scattered Clouds,120,2013-11-03 23:15:00
5:35 PM,42.4,34.9,75,30.30,10.0,SE,4.6,-,N/A,,Scattered Clouds,130,2013-11-03 23:35:00
5:55 PM,41.2,36.1,82,30.30,10.0,ESE,5.8,-,N/A,,Scattered Clouds,120,2013-11-03 23:55:00
6:15 PM,40.8,35.8,82,30.30,10.0,ESE,5.8,-,N/A,,Clear,110,2013-11-04 00:15:00
6:35 PM,40.1,35.6,84,30.30,10.0,ESE,5.8,-,N/A,,Clear,110,2013-11-04 00:35:00
6:55 PM,40.3,36.0,85,30.29,10.0,ESE,8.1,-,N/A,,Clear,110,2013-11-04 00:55:00
7:15 PM,41.2,35.8,81,30.29,10.0,ESE,8.1,-,N/A,,Clear,120,2013-11-04 01:15:00
7:35 PM,41.2,35.8,81,30.30,10.0,SE,8.1,-,N/A,,Clear,130,2013-11-04 01:35:00
7:55 PM,41.2,35.6,81,30.31,10.0,SE,6.9,-,N/A,,Scattered Clouds,130,2013-11-04 01:55:00
8:15 PM,41.0,35.6,81,30.30,10.0,SE,8.1,-,N/A,,Scattered Clouds,130,2013-11-04 02:15:00
8:35 PM,41.0,35.6,81,30.31,10.0,SE,5.8,-,N/A,,Clear,130,2013-11-04 02:35:00
8:55 PM,40.5,35.6,83,30.32,10.0,SE,5.8,-,N/A,,Clear,130,2013-11-04 02:55:00
9:15 PM,40.3,35.6,83,30.32,10.0,SE,9.2,-,N/A,,Clear,130,2013-11-04 03:15:00
9:35 PM,40.3,35.4,83,30.32,10.0,SE,9.2,-,N/A,,Scattered Clouds,130,2013-11-04 03:35:00
9:55 PM,40.1,35.2,83,30.31,10.0,ESE,10.4,-,N/A,,Scattered Clouds,120,2013-11-04 03:55:00
10:15 PM,40.1,35.1,82,30.31,10.0,ESE,9.2,16.1,N/A,,Scattered Clouds,120,2013-11-04 04:15:00
10:35 PM,39.7,35.1,83,30.31,10.0,ESE,13.8,18.4,N/A,,Scattered Clouds,120,2013-11-04 04:35:00
10:55 PM,39.7,34.9,83,30.31,10.0,SE,9.2,18.4,N/A,,Scattered Clouds,130,2013-11-04 04:55:00